Pass Lake, Canada
Current Conditions -  °F | °C
As of 8:00 PM on Sunday 28 Dec 2014 (Local Time) from CYQT Reporting Station
Clear Clear  
Wind Chill: -12°   Ceiling: Unl
Heat Index:   Visibility: 15mi
Dew Point: -6°   Wind: 8mph
Humidity: 72%   Direction: 290°WNW
Pressure: 30.26"   Gusts: NA
Location:  48.57°N, 88.73°W
Report Text: CYQT 290100Z 29007KT 15SM SKC M17/M21 A3026 RMK SLP265
Loading
Personal Weather Stations






























Interactive Weather Map New forecast layout! Learn more

10-Day Weather Forecast

Advertisements
Track Severe Weather on mobile